createdAt,value
2018-09-02T00:00:04.126Z,19.70
2018-09-02T00:02:33.475Z,19.50
2018-09-02T00:05:02.805Z,18.70
2018-09-02T00:07:32.056Z,18.10
2018-09-02T00:10:01.442Z,18.87
2018-09-02T00:12:30.703Z,17.30
2018-09-02T00:15:00.080Z,20.23
2018-09-02T00:17:29.318Z,18.47
2018-09-02T00:19:58.635Z,21.07
2018-09-02T00:22:27.999Z,17.27
2018-09-02T00:24:57.286Z,19.43
2018-09-02T00:27:26.595Z,19.23
2018-09-02T00:29:55.854Z,19.73
2018-09-02T00:32:25.135Z,21.07
2018-09-02T00:34:54.421Z,23.77
2018-09-02T00:37:23.715Z,20.07
2018-09-02T00:39:52.977Z,21.00
2018-09-02T00:42:22.290Z,23.10
2018-09-02T00:44:51.598Z,21.50
2018-09-02T00:47:20.964Z,20.40
2018-09-02T00:49:50.246Z,22.23
2018-09-02T00:52:19.550Z,21.30
2018-09-02T00:54:48.928Z,22.20
2018-09-02T00:57:18.255Z,20.97
2018-09-02T00:59:47.594Z,20.10
2018-09-02T01:02:16.875Z,19.53
2018-09-02T01:04:46.255Z,23.57
2018-09-02T01:07:15.575Z,20.40
2018-09-02T01:09:44.809Z,20.70
2018-09-02T01:12:14.171Z,20.17
2018-09-02T01:14:43.483Z,19.97
2018-09-02T01:17:12.850Z,22.30
2018-09-02T01:19:42.280Z,20.70
2018-09-02T01:22:11.531Z,21.80
2018-09-02T01:24:40.880Z,20.63
2018-09-02T01:27:10.143Z,21.63
2018-09-02T01:29:39.453Z,23.10
2018-09-02T01:32:08.811Z,20.53
2018-09-02T01:34:38.044Z,21.23
2018-09-02T01:37:07.391Z,21.37
2018-09-02T01:39:36.671Z,20.53
2018-09-02T01:42:05.958Z,21.20
2018-09-02T01:44:35.263Z,21.13
2018-09-02T01:47:04.575Z,18.70
2018-09-02T01:49:34.218Z,20.93
2018-09-02T01:52:03.563Z,16.63
2018-09-02T01:54:32.960Z,19.00
2018-09-02T01:57:02.219Z,20.43
2018-09-02T01:59:31.845Z,19.43
2018-09-02T02:02:01.120Z,18.50
2018-09-02T02:04:34.576Z,18.07
2018-09-02T02:07:03.871Z,18.77
2018-09-02T02:09:33.212Z,20.90
2018-09-02T02:12:02.522Z,21.87
2018-09-02T02:14:31.774Z,21.60
2018-09-02T02:17:01.282Z,22.87
2018-09-02T02:19:31.274Z,20.17
2018-09-02T02:22:00.559Z,20.93
2018-09-02T02:24:29.858Z,20.17
2018-09-02T02:26:59.200Z,20.30
2018-09-02T02:29:28.512Z,21.40
2018-09-02T02:31:57.824Z,19.40
2018-09-02T02:34:27.074Z,24.77
2018-09-02T02:36:56.387Z,24.10
2018-09-02T02:39:25.715Z,23.50
2018-09-02T02:41:55.095Z,22.77
2018-09-02T02:44:24.442Z,21.93
2018-09-02T02:46:53.743Z,22.50
2018-09-02T02:49:23.020Z,25.80
2018-09-02T02:51:52.322Z,22.10
2018-09-02T02:54:21.678Z,22.43
2018-09-02T02:56:51.043Z,20.33
2018-09-02T02:59:20.428Z,22.70
2018-09-02T03:01:49.696Z,21.77
2018-09-02T03:04:19.032Z,22.60
2018-09-02T03:06:48.278Z,23.70
2018-09-02T03:09:17.576Z,21.40
2018-09-02T03:11:46.893Z,23.77
2018-09-02T03:14:16.237Z,21.30
2018-09-02T03:16:45.483Z,19.30
2018-09-02T03:19:14.879Z,20.33
2018-09-02T03:21:44.140Z,21.97
2018-09-02T03:24:13.459Z,20.50
2018-09-02T03:26:42.718Z,21.23
2018-09-02T03:29:12.078Z,22.00
2018-09-02T03:31:41.357Z,24.27
2018-09-02T03:34:10.643Z,26.07
2018-09-02T03:36:39.959Z,24.33
2018-09-02T03:39:09.234Z,24.70
2018-09-02T03:41:38.599Z,24.10
2018-09-02T03:44:07.972Z,22.07
2018-09-02T03:46:37.276Z,22.40
2018-09-02T03:49:06.701Z,24.90
2018-09-02T03:51:35.966Z,24.13
2018-09-02T03:54:05.972Z,22.23
2018-09-02T03:56:35.458Z,22.87
2018-09-02T03:59:04.955Z,22.30
2018-09-02T04:01:34.223Z,22.00
2018-09-02T04:04:03.514Z,24.13
2018-09-02T04:06:32.903Z,22.73
2018-09-02T04:09:02.214Z,22.40
2018-09-02T04:11:31.617Z,22.17
2018-09-02T04:14:00.899Z,23.53
2018-09-02T04:16:30.179Z,25.70
2018-09-02T04:18:59.508Z,21.50
2018-09-02T04:21:28.854Z,25.20
2018-09-02T04:23:58.131Z,23.23
2018-09-02T04:26:27.383Z,24.13
2018-09-02T04:28:56.736Z,19.93
2018-09-02T04:31:26.056Z,20.00
2018-09-02T04:33:55.435Z,17.57
2018-09-02T04:36:24.851Z,17.30
2018-09-02T04:38:54.126Z,17.80
2018-09-02T04:41:23.390Z,18.03
2018-09-02T04:43:59.168Z,20.00
2018-09-02T04:46:28.518Z,22.17
2018-09-02T04:48:57.803Z,20.10
2018-09-02T04:51:27.063Z,21.47
2018-09-02T04:53:56.396Z,18.80
2018-09-02T04:56:25.640Z,17.37
2018-09-02T04:58:54.945Z,18.10
2018-09-02T05:01:24.348Z,20.23
2018-09-02T05:03:53.637Z,18.40
2018-09-02T05:06:22.951Z,21.87
2018-09-02T05:08:52.212Z,20.20
2018-09-02T05:11:21.486Z,20.63
2018-09-02T05:13:50.794Z,22.00
2018-09-02T05:16:20.047Z,22.10
2018-09-02T05:18:49.335Z,19.77
2018-09-02T05:21:18.628Z,18.30
2018-09-02T05:23:48.075Z,19.13
2018-09-02T05:26:17.289Z,17.97
2018-09-02T05:28:46.496Z,18.93
2018-09-02T05:31:15.783Z,21.27
2018-09-02T05:33:44.983Z,19.50
2018-09-02T05:36:14.234Z,19.30
2018-09-02T05:38:44.320Z,18.63
2018-09-02T05:41:13.555Z,18.93
2018-09-02T05:43:42.755Z,21.40
2018-09-02T05:46:11.960Z,17.43
2018-09-02T05:48:41.174Z,21.17
2018-09-02T05:51:10.426Z,21.20
2018-09-02T05:53:39.656Z,21.00
2018-09-02T05:56:09.627Z,19.33
2018-09-02T05:58:38.959Z,20.00
2018-09-02T06:01:08.325Z,21.30
2018-09-02T06:03:37.674Z,21.23
2018-09-02T06:06:07.095Z,20.33
2018-09-02T06:08:36.375Z,19.30
2018-09-02T06:11:06.835Z,19.13
2018-09-02T06:13:36.118Z,19.57
2018-09-02T06:16:05.575Z,20.33
2018-09-02T06:18:34.835Z,18.73
2018-09-02T06:21:04.144Z,19.63
2018-09-02T06:23:33.423Z,18.23
2018-09-02T06:26:02.732Z,19.63
2018-09-02T06:28:32.119Z,17.93
2018-09-02T06:31:02.995Z,19.27
2018-09-02T06:33:32.691Z,15.77
2018-09-02T06:36:01.986Z,17.40
2018-09-02T06:38:31.619Z,16.67
2018-09-02T06:41:00.959Z,16.97
2018-09-02T06:43:30.315Z,16.57
2018-09-02T06:45:59.628Z,13.90
2018-09-02T06:48:29.050Z,14.90
2018-09-02T06:50:58.319Z,14.07
2018-09-02T06:53:27.621Z,14.43
2018-09-02T06:55:59.003Z,14.90
2018-09-02T06:58:28.581Z,15.97
2018-09-02T07:00:57.813Z,16.50
2018-09-02T07:03:27.109Z,16.07
2018-09-02T07:05:56.431Z,14.03
2018-09-02T07:08:25.686Z,12.97
2018-09-02T07:10:55.407Z,16.00
2018-09-02T07:13:24.748Z,15.80
2018-09-02T07:15:54.031Z,16.40
2018-09-02T07:18:23.416Z,14.20
2018-09-02T07:20:52.715Z,13.60
2018-09-02T07:23:21.987Z,14.87
2018-09-02T07:25:51.347Z,15.13
2018-09-02T07:28:20.711Z,13.13
2018-09-02T07:30:50.047Z,15.30
2018-09-02T07:33:19.512Z,15.80
2018-09-02T07:35:49.085Z,15.40
2018-09-02T07:38:18.551Z,16.57
2018-09-02T07:40:47.963Z,15.50
2018-09-02T07:43:17.210Z,13.67
2018-09-02T07:45:46.468Z,13.70
2018-09-02T07:48:15.764Z,14.33
2018-09-02T07:50:46.542Z,12.30
2018-09-02T07:53:15.843Z,14.17
2018-09-02T07:55:45.086Z,14.50
2018-09-02T07:58:15.476Z,16.27
2018-09-02T08:00:44.731Z,16.80
2018-09-02T08:03:15.079Z,13.93
2018-09-02T08:05:44.411Z,15.33
2018-09-02T08:08:13.644Z,14.07
2018-09-02T08:10:42.928Z,11.93
2018-09-02T08:13:12.224Z,14.60
2018-09-02T08:15:41.516Z,15.30
2018-09-02T08:18:10.827Z,11.73
2018-09-02T08:20:40.087Z,13.00
2018-09-02T08:23:09.552Z,12.20
2018-09-02T08:25:39.882Z,11.83
2018-09-02T08:28:09.364Z,11.27
2018-09-02T08:30:39.359Z,12.60
2018-09-02T08:33:12.500Z,11.70
2018-09-02T08:35:41.820Z,12.30
2018-09-02T08:38:11.108Z,10.33
2018-09-02T08:40:40.496Z,12.97
2018-09-02T08:43:10.013Z,11.60
2018-09-02T08:45:39.324Z,13.20
2018-09-02T08:48:08.660Z,13.13
2018-09-02T08:50:38.043Z,11.20
2018-09-02T08:53:07.338Z,11.73
2018-09-02T08:55:36.715Z,12.63
2018-09-02T08:58:06.291Z,10.90
2018-09-02T09:00:35.620Z,13.93
2018-09-02T09:03:04.999Z,12.50
2018-09-02T09:05:34.253Z,11.90
2018-09-02T09:08:03.709Z,13.80
2018-09-02T09:10:32.984Z,13.93
2018-09-02T09:13:02.340Z,14.00
2018-09-02T09:15:31.700Z,13.53
2018-09-02T09:18:00.955Z,13.47
2018-09-02T09:20:30.233Z,13.27
2018-09-02T09:22:59.565Z,12.57
2018-09-02T09:25:28.899Z,13.53
2018-09-02T09:27:58.192Z,13.00
2018-09-02T09:30:27.468Z,13.50
2018-09-02T09:32:56.866Z,11.20
2018-09-02T09:35:26.128Z,12.10
2018-09-02T09:37:55.546Z,12.80
2018-09-02T09:40:24.812Z,12.00
2018-09-02T09:42:54.039Z,10.30
2018-09-02T09:45:23.338Z,10.73
2018-09-02T09:47:52.618Z,10.90
2018-09-02T09:50:21.887Z,10.90
2018-09-02T09:52:51.230Z,9.73
2018-09-02T09:55:20.602Z,9.40
2018-09-02T09:57:49.998Z,10.57
2018-09-02T10:00:24.478Z,10.60
2018-09-02T10:02:53.998Z,9.73
2018-09-02T10:05:23.462Z,9.60
2018-09-02T10:07:52.883Z,10.67
2018-09-02T10:10:23.403Z,10.87
2018-09-02T10:12:52.713Z,10.67
2018-09-02T10:15:22.039Z,10.27
2018-09-02T10:17:51.386Z,11.30
2018-09-02T10:20:20.691Z,11.20
2018-09-02T10:22:49.956Z,9.90
2018-09-02T10:25:19.222Z,9.57
2018-09-02T10:27:48.568Z,10.10
2018-09-02T10:30:17.963Z,9.60
2018-09-02T10:32:47.355Z,10.90
2018-09-02T10:35:16.655Z,9.13
2018-09-02T10:37:45.880Z,8.17
2018-09-02T10:40:15.175Z,9.70
2018-09-02T10:42:44.415Z,8.47
2018-09-02T10:45:13.703Z,7.33
2018-09-02T10:47:43.007Z,8.13
2018-09-02T10:50:12.931Z,7.20
2018-09-02T10:52:42.231Z,7.33
2018-09-02T10:55:11.544Z,7.27
2018-09-02T10:57:40.830Z,6.40
2018-09-02T11:00:10.964Z,6.27
2018-09-02T11:02:40.512Z,7.10
2018-09-02T11:05:10.086Z,7.90
2018-09-02T11:07:39.641Z,7.40
2018-09-02T11:10:08.914Z,5.80
2018-09-02T11:12:38.235Z,6.33
2018-09-02T11:15:07.813Z,6.00
2018-09-02T11:17:37.445Z,6.63
2018-09-02T11:20:07.144Z,6.33
2018-09-02T11:22:36.466Z,7.97
2018-09-02T11:25:05.911Z,7.07
2018-09-02T11:27:35.160Z,8.40
2018-09-02T11:30:04.648Z,6.90
2018-09-02T11:32:34.624Z,7.50
2018-09-02T11:35:04.065Z,7.30
2018-09-02T11:37:33.456Z,7.27
2018-09-02T11:40:03.172Z,7.57
2018-09-02T11:42:32.515Z,7.80
2018-09-02T11:45:01.893Z,6.80
2018-09-02T11:47:31.179Z,6.73
2018-09-02T11:50:00.432Z,6.90
2018-09-02T11:52:29.761Z,6.27
2018-09-02T11:54:59.970Z,7.20
2018-09-02T11:57:30.186Z,7.30
2018-09-02T11:59:59.599Z,6.50
2018-09-02T12:02:29.759Z,6.00
2018-09-02T12:04:59.116Z,6.03
2018-09-02T12:07:28.639Z,6.17
2018-09-02T12:09:58.624Z,6.60
2018-09-02T12:12:27.913Z,6.07
2018-09-02T12:14:57.376Z,6.40
2018-09-02T12:17:26.584Z,6.70
2018-09-02T12:19:55.842Z,6.10
2018-09-02T12:22:25.160Z,6.77
2018-09-02T12:24:54.478Z,5.63
2018-09-02T12:27:23.768Z,6.30
2018-09-02T12:29:53.078Z,6.33
2018-09-02T12:32:22.396Z,7.40
2018-09-02T12:34:51.713Z,6.67
2018-09-02T12:37:20.944Z,5.63
2018-09-02T12:39:50.254Z,7.30
2018-09-02T12:42:19.604Z,6.17
2018-09-02T12:44:48.929Z,6.73
2018-09-02T12:47:18.208Z,6.23
2018-09-02T12:49:47.507Z,6.10
2018-09-02T12:52:16.816Z,5.87
2018-09-02T12:54:46.132Z,6.53
2018-09-02T12:57:15.447Z,7.20
2018-09-02T12:59:44.744Z,6.30
2018-09-02T13:02:14.036Z,6.93
2018-09-02T13:04:43.319Z,6.07
2018-09-02T13:07:12.613Z,6.20
2018-09-02T13:09:42.058Z,5.30
2018-09-02T13:12:11.361Z,5.67
2018-09-02T13:14:40.675Z,6.53
2018-09-02T13:17:09.998Z,5.50
2018-09-02T13:19:39.237Z,5.60
2018-09-02T13:22:08.579Z,6.00
2018-09-02T13:24:37.935Z,6.60
2018-09-02T13:27:07.307Z,6.90
2018-09-02T13:29:36.703Z,6.00
2018-09-02T13:32:06.094Z,5.70
2018-09-02T13:34:35.473Z,5.67
2018-09-02T13:37:06.223Z,5.50
2018-09-02T13:39:36.405Z,4.30
2018-09-02T13:42:05.975Z,5.63
2018-09-02T13:44:36.348Z,4.10
2018-09-02T13:47:06.048Z,4.97
2018-09-02T13:49:35.453Z,5.53
2018-09-02T13:52:04.814Z,5.57
2018-09-02T13:54:34.148Z,5.27
2018-09-02T13:57:03.491Z,5.37
2018-09-02T13:59:33.584Z,5.60
2018-09-02T14:02:03.174Z,5.80
2018-09-02T14:04:32.888Z,5.67
2018-09-02T14:07:02.196Z,6.77
2018-09-02T14:09:31.572Z,6.50
2018-09-02T14:12:00.884Z,5.80
2018-09-02T14:14:30.154Z,4.87
2018-09-02T14:16:59.414Z,4.97
2018-09-02T14:19:28.720Z,4.47
2018-09-02T14:21:57.997Z,3.50
2018-09-02T14:24:27.231Z,4.03
2018-09-02T14:26:57.053Z,3.60
2018-09-02T14:29:26.396Z,4.50
2018-09-02T14:31:55.709Z,3.83
2018-09-02T14:34:24.956Z,5.50
2018-09-02T14:36:55.145Z,4.60
2018-09-02T14:39:24.493Z,4.90
2018-09-02T14:41:53.914Z,5.00
2018-09-02T14:44:23.526Z,4.80
2018-09-02T14:46:53.176Z,4.10
2018-09-02T14:49:22.446Z,4.00
2018-09-02T14:51:51.707Z,4.30
2018-09-02T14:54:21.023Z,3.57
2018-09-02T14:56:50.567Z,5.10
2018-09-02T14:59:20.031Z,6.27
2018-09-02T15:01:49.519Z,5.60
2018-09-02T15:04:18.923Z,5.60
2018-09-02T15:06:48.458Z,6.30
2018-09-02T15:09:17.806Z,6.90
2018-09-02T15:11:47.299Z,6.67
2018-09-02T15:14:16.591Z,6.80
2018-09-02T15:16:46.003Z,5.50
2018-09-02T15:19:15.290Z,6.33
2018-09-02T15:21:44.544Z,7.13
2018-09-02T15:24:13.851Z,6.60
2018-09-02T15:26:43.225Z,6.80
2018-09-02T15:29:12.468Z,6.53
2018-09-02T15:31:41.805Z,7.50
2018-09-02T15:34:11.108Z,6.67
2018-09-02T15:36:40.517Z,7.20
2018-09-02T15:39:11.438Z,7.20
2018-09-02T15:41:41.366Z,6.20
2018-09-02T15:44:11.458Z,6.30
2018-09-02T15:46:40.776Z,6.80
2018-09-02T15:49:10.136Z,6.10
2018-09-02T15:51:39.686Z,5.17
2018-09-02T15:54:09.054Z,5.60
2018-09-02T15:56:38.871Z,6.47
2018-09-02T15:59:08.169Z,6.07
2018-09-02T16:01:38.029Z,5.97
2018-09-02T16:04:07.825Z,5.50
2018-09-02T16:06:38.199Z,7.07
2018-09-02T16:09:10.129Z,6.60
2018-09-02T16:11:39.768Z,7.17
2018-09-02T16:14:09.768Z,6.67
2018-09-02T16:16:39.452Z,6.43
2018-09-02T16:19:09.439Z,7.40
2018-09-02T16:21:38.954Z,8.50
2018-09-02T16:24:08.242Z,6.30
2018-09-02T16:26:37.499Z,6.53
2018-09-02T16:29:06.897Z,6.37
2018-09-02T16:31:36.200Z,9.30
2018-09-02T16:34:05.731Z,6.90
2018-09-02T16:36:35.090Z,7.37
2018-09-02T16:39:05.696Z,7.33
2018-09-02T16:41:34.952Z,8.50
2018-09-02T16:44:04.320Z,8.60
2018-09-02T16:46:33.618Z,7.97
2018-09-02T16:49:03.077Z,7.10
2018-09-02T16:51:32.327Z,8.43
2018-09-02T16:54:04.215Z,7.53
2018-09-02T16:56:33.563Z,6.93
2018-09-02T16:59:02.854Z,7.30
2018-09-02T17:01:32.179Z,6.90
2018-09-02T17:04:04.480Z,8.40
2018-09-02T17:06:33.754Z,8.77
2018-09-02T17:09:03.160Z,6.83
2018-09-02T17:11:39.421Z,8.33
2018-09-02T17:14:10.155Z,8.23
2018-09-02T17:16:41.237Z,8.47
2018-09-02T17:19:18.360Z,7.90
2018-09-02T17:21:54.354Z,7.80
2018-09-02T17:24:23.880Z,7.30
2018-09-02T17:26:58.212Z,6.50
2018-09-02T17:29:27.508Z,9.13
2018-09-02T17:31:57.795Z,7.70
2018-09-02T17:34:27.345Z,7.13
2018-09-02T17:36:58.346Z,7.33
2018-09-02T17:39:27.743Z,8.60
2018-09-02T17:41:57.608Z,7.63
2018-09-02T17:44:27.518Z,6.97
2018-09-02T17:46:57.052Z,7.67
2018-09-02T17:49:26.603Z,9.90
2018-09-02T17:51:56.338Z,10.17
2018-09-02T17:54:26.324Z,9.27
2018-09-02T17:56:55.845Z,7.97
2018-09-02T17:59:25.381Z,9.23
2018-09-02T18:01:55.091Z,9.10
2018-09-02T18:04:24.740Z,8.60
2018-09-02T18:06:55.457Z,9.27
2018-09-02T18:09:25.096Z,9.83
2018-09-02T18:11:54.608Z,10.57
2018-09-02T18:14:24.383Z,9.80
2018-09-02T18:16:54.070Z,9.30
2018-09-02T18:19:24.911Z,10.10
2018-09-02T18:21:54.571Z,10.73
2018-09-02T18:24:24.350Z,9.27
2018-09-02T18:26:53.957Z,10.90
2018-09-02T18:29:39.532Z,10.87
2018-09-02T18:32:09.346Z,9.20
2018-09-02T18:34:39.416Z,9.23
2018-09-02T18:37:09.318Z,9.10
2018-09-02T18:39:38.896Z,10.70
2018-09-02T18:42:08.711Z,9.70
2018-09-02T18:44:39.182Z,11.17
2018-09-02T18:47:09.112Z,10.83
2018-09-02T18:49:39.005Z,8.47
2018-09-02T18:52:08.869Z,10.60
2018-09-02T18:54:38.601Z,9.90
2018-09-02T18:57:10.607Z,7.73
2018-09-02T18:59:42.974Z,8.67
2018-09-02T19:02:14.259Z,8.97
2018-09-02T19:04:43.986Z,10.97
2018-09-02T19:07:16.691Z,9.13
2018-09-02T19:09:47.731Z,8.60
2018-09-02T19:12:18.674Z,10.07
2018-09-02T19:14:50.486Z,9.80
2018-09-02T19:17:20.806Z,8.63
2018-09-02T19:19:51.872Z,8.70
2018-09-02T19:22:21.892Z,9.87
2018-09-02T19:24:51.756Z,10.13
2018-09-02T19:27:22.834Z,8.97
2018-09-02T19:29:54.641Z,10.00
2018-09-02T19:32:24.381Z,10.83
2018-09-02T19:34:54.205Z,9.87
2018-09-02T19:37:24.789Z,10.13
2018-09-02T19:39:55.382Z,10.20
2018-09-02T19:42:30.231Z,13.90
2018-09-02T19:44:59.996Z,12.07
2018-09-02T19:47:29.775Z,13.07
2018-09-02T19:49:59.515Z,11.50
2018-09-02T19:52:29.619Z,13.77
2018-09-02T19:54:59.648Z,12.30
2018-09-02T19:57:29.318Z,10.97
2018-09-02T19:59:58.971Z,12.03
2018-09-02T20:02:29.247Z,11.40
2018-09-02T20:04:59.038Z,10.13
2018-09-02T20:07:28.642Z,11.80
2018-09-02T20:10:00.688Z,14.77
2018-09-02T20:12:30.420Z,13.40
2018-09-02T20:15:00.239Z,13.47
2018-09-02T20:17:30.050Z,12.60
2018-09-02T20:20:00.010Z,13.13
2018-09-02T20:22:30.301Z,13.60
2018-09-02T20:25:00.433Z,16.50
2018-09-02T20:27:30.653Z,16.30
2018-09-02T20:30:00.558Z,14.30
2018-09-02T20:32:30.321Z,13.77
2018-09-02T20:35:00.356Z,11.30
2018-09-02T20:37:29.820Z,17.23
2018-09-02T20:39:59.152Z,13.50
2018-09-02T20:42:28.495Z,13.17
2018-09-02T20:44:57.784Z,13.70
2018-09-02T20:47:27.620Z,17.43
2018-09-02T20:49:57.759Z,16.33
2018-09-02T20:52:27.433Z,14.67
2018-09-02T20:54:57.102Z,12.80
2018-09-02T20:57:26.351Z,13.47
2018-09-02T20:59:55.569Z,15.43
2018-09-02T21:02:25.250Z,14.97
2018-09-02T21:04:54.567Z,14.80
2018-09-02T21:07:24.830Z,13.60
2018-09-02T21:09:54.636Z,14.93
2018-09-02T21:12:24.263Z,13.50
2018-09-02T21:14:53.727Z,13.60
2018-09-02T21:17:23.599Z,12.77
2018-09-02T21:19:54.009Z,13.03
2018-09-02T21:22:24.006Z,11.90
2018-09-02T21:24:53.828Z,16.13
2018-09-02T21:27:23.993Z,12.50
2018-09-02T21:29:53.806Z,15.97
2018-09-02T21:32:24.092Z,15.17
2018-09-02T21:34:53.856Z,14.13
2018-09-02T21:37:23.978Z,14.40
2018-09-02T21:39:53.776Z,17.57
2018-09-02T21:42:23.633Z,13.87
2018-09-02T21:44:53.017Z,14.93
2018-09-02T21:47:23.279Z,16.40
2018-09-02T21:49:53.169Z,19.70
2018-09-02T21:52:23.103Z,20.10
2018-09-02T21:54:52.994Z,18.97
2018-09-02T21:57:23.000Z,18.40
2018-09-02T21:59:53.923Z,17.60
2018-09-02T22:02:23.903Z,18.40
2018-09-02T22:04:55.011Z,20.10
2018-09-02T22:07:25.131Z,16.67
2018-09-02T22:09:55.168Z,20.47
2018-09-02T22:12:25.185Z,20.30
2018-09-02T22:14:54.395Z,19.07
2018-09-02T22:17:24.125Z,17.20
2018-09-02T22:19:53.391Z,16.20
2018-09-02T22:22:22.776Z,17.20
2018-09-02T22:24:52.051Z,19.40
2018-09-02T22:27:21.468Z,14.10
2018-09-02T22:29:51.553Z,19.17
2018-09-02T22:32:20.987Z,17.80
2018-09-02T22:34:50.251Z,19.00
2018-09-02T22:37:19.456Z,17.43
2018-09-02T22:39:48.782Z,16.33
2018-09-02T22:42:18.339Z,16.13
2018-09-02T22:44:47.566Z,15.63
2018-09-02T22:47:16.820Z,14.73
2018-09-02T22:49:46.086Z,17.60
2018-09-02T22:52:15.319Z,18.10
2018-09-02T22:54:44.516Z,20.07
2018-09-02T22:57:13.801Z,18.10
2018-09-02T22:59:42.953Z,16.90
2018-09-02T23:02:12.185Z,20.47
2018-09-02T23:04:41.473Z,18.57
2018-09-02T23:07:10.656Z,15.37
2018-09-02T23:09:39.851Z,15.00
2018-09-02T23:12:09.192Z,21.03
2018-09-02T23:14:38.412Z,21.10
2018-09-02T23:17:07.655Z,17.20
2018-09-02T23:19:36.848Z,15.37
2018-09-02T23:22:06.140Z,18.57
2018-09-02T23:24:35.404Z,18.23
2018-09-02T23:27:04.642Z,17.37
2018-09-02T23:29:34.071Z,18.83
2018-09-02T23:32:03.271Z,17.17
2018-09-02T23:34:32.478Z,17.53
2018-09-02T23:37:01.768Z,16.57
2018-09-02T23:39:31.018Z,21.73
2018-09-02T23:42:00.257Z,19.47
2018-09-02T23:44:29.478Z,17.43
2018-09-02T23:46:58.654Z,17.80
2018-09-02T23:49:27.882Z,18.47
2018-09-02T23:51:57.081Z,18.97
2018-09-02T23:54:26.316Z,16.23
2018-09-02T23:56:55.510Z,18.90
2018-09-02T23:59:24.752Z,19.00
